createdAt,value
2023-03-28T00:01:13.057Z,65.08
2023-03-28T00:03:46.154Z,64.75
2023-03-28T00:06:20.964Z,64.18
2023-03-28T00:08:58.257Z,64.89
2023-03-28T00:11:40.062Z,65.18
2023-03-28T00:14:18.640Z,64.75
2023-03-28T00:16:52.844Z,64.63
2023-03-28T00:19:25.724Z,64.93
2023-03-28T00:21:58.557Z,64.90
2023-03-28T00:24:31.337Z,65.08
2023-03-28T00:27:05.797Z,64.94
2023-03-28T00:29:40.494Z,64.56
2023-03-28T00:32:14.673Z,64.66
2023-03-28T00:34:47.452Z,65.28
2023-03-28T00:37:24.485Z,64.34
2023-03-28T00:40:10.100Z,64.60
2023-03-28T00:42:53.173Z,64.94
2023-03-28T00:45:27.115Z,64.67
2023-03-28T00:48:06.705Z,64.81
2023-03-28T00:50:48.641Z,64.61
2023-03-28T00:53:24.058Z,64.48
2023-03-28T00:56:03.413Z,64.62
2023-03-28T00:58:42.439Z,64.35
2023-03-28T01:01:20.523Z,64.36
2023-03-28T01:04:02.362Z,64.27
2023-03-28T01:06:40.680Z,64.39
2023-03-28T01:09:19.793Z,64.68
2023-03-28T01:11:59.131Z,64.22
2023-03-28T01:14:33.294Z,64.75
2023-03-28T01:17:08.846Z,64.47
2023-03-28T01:19:58.830Z,64.60
2023-03-28T01:23:11.141Z,64.11
2023-03-28T01:26:26.220Z,64.53
2023-03-28T01:29:42.240Z,64.23
2023-03-28T01:33:12.616Z,64.45
2023-03-28T01:36:34.785Z,64.44
2023-03-28T01:39:18.972Z,64.18
2023-03-28T01:42:00.324Z,64.31
2023-03-28T01:44:41.932Z,64.06
2023-03-28T01:47:20.682Z,64.09
2023-03-28T01:50:03.383Z,64.04
2023-03-28T01:52:40.064Z,64.31
2023-03-28T01:55:21.847Z,64.08
2023-03-28T01:58:03.917Z,64.34
2023-03-28T02:00:54.960Z,64.15
2023-03-28T02:03:33.031Z,64.65
2023-03-28T02:06:22.883Z,64.54
2023-03-28T02:08:58.161Z,64.40
2023-03-28T02:12:17.527Z,64.29
2023-03-28T02:15:21.726Z,64.50
2023-03-28T02:18:32.684Z,64.26
2023-03-28T02:21:30.621Z,64.73
2023-03-28T02:24:13.679Z,64.32
2023-03-28T02:26:58.508Z,64.43
2023-03-28T02:29:44.671Z,64.66
2023-03-28T02:32:23.817Z,64.32
2023-03-28T02:34:59.855Z,63.82
2023-03-28T02:37:43.693Z,64.33
2023-03-28T02:40:37.946Z,64.58
2023-03-28T02:43:25.959Z,64.23
2023-03-28T02:46:13.537Z,64.52
2023-03-28T02:49:19.306Z,64.11
2023-03-28T02:52:00.915Z,64.42
2023-03-28T02:54:44.722Z,64.43
2023-03-28T02:57:51.010Z,64.59
2023-03-28T03:00:24.610Z,64.73
2023-03-28T03:03:01.695Z,64.46
2023-03-28T03:05:36.094Z,64.61
2023-03-28T03:08:10.707Z,64.51
2023-03-28T03:10:43.762Z,64.91
2023-03-28T03:13:16.727Z,64.45
2023-03-28T03:15:50.662Z,64.61
2023-03-28T03:18:33.680Z,64.65
2023-03-28T03:21:07.049Z,64.64
2023-03-28T03:23:41.831Z,64.58
2023-03-28T03:26:14.440Z,64.35
2023-03-28T03:28:51.442Z,64.85
2023-03-28T03:31:24.366Z,64.68
2023-03-28T03:34:33.873Z,64.76
2023-03-28T03:37:06.962Z,64.71
2023-03-28T03:39:39.978Z,65.00
2023-03-28T03:42:12.647Z,64.52
2023-03-28T03:44:45.705Z,64.73
2023-03-28T03:47:20.107Z,64.57
2023-03-28T03:49:57.416Z,65.22
2023-03-28T03:52:30.137Z,64.82
2023-03-28T03:55:03.178Z,64.85
2023-03-28T03:57:40.095Z,64.71
2023-03-28T04:00:14.822Z,65.09
2023-03-28T04:02:57.208Z,64.78
2023-03-28T04:05:33.309Z,65.11
2023-03-28T04:08:07.937Z,65.07
2023-03-28T04:10:47.381Z,64.53
2023-03-28T04:13:20.398Z,64.78
2023-03-28T04:15:58.910Z,65.03
2023-03-28T04:18:54.432Z,65.07
2023-03-28T04:21:32.359Z,64.67
2023-03-28T04:24:15.657Z,64.51
2023-03-28T04:26:56.078Z,64.45
2023-03-28T04:29:31.836Z,64.65
2023-03-28T04:32:25.456Z,64.38
2023-03-28T04:35:11.323Z,64.69
2023-03-28T04:37:47.770Z,64.64
2023-03-28T04:40:22.484Z,64.46
2023-03-28T04:43:01.672Z,64.68
2023-03-28T04:45:40.746Z,65.08
2023-03-28T04:48:21.219Z,64.45
2023-03-28T04:50:54.762Z,64.80
2023-03-28T04:53:28.989Z,65.06
2023-03-28T04:56:22.258Z,64.80
2023-03-28T04:58:55.803Z,65.02
2023-03-28T05:01:33.146Z,65.29
2023-03-28T05:04:27.940Z,65.26
2023-03-28T05:07:02.641Z,65.56
2023-03-28T05:09:37.770Z,65.64
2023-03-28T05:12:10.977Z,65.33
2023-03-28T05:15:03.821Z,65.42
2023-03-28T05:17:37.674Z,65.25
2023-03-28T05:20:22.478Z,65.44
2023-03-28T05:22:59.587Z,65.72
2023-03-28T05:25:34.168Z,65.43
2023-03-28T05:28:09.660Z,65.46
2023-03-28T05:30:52.568Z,65.13
2023-03-28T05:33:25.761Z,65.29
2023-03-28T05:36:00.400Z,65.48
2023-03-28T05:38:38.759Z,65.57
2023-03-28T05:41:22.548Z,64.94
2023-03-28T05:43:56.360Z,65.39
2023-03-28T05:46:44.631Z,65.60
2023-03-28T05:49:20.659Z,65.34
2023-03-28T05:51:57.486Z,65.50
2023-03-28T05:54:30.324Z,65.53
2023-03-28T05:57:05.373Z,65.78
2023-03-28T05:59:40.778Z,65.43
2023-03-28T06:02:15.857Z,65.60
2023-03-28T06:04:49.467Z,65.87
2023-03-28T06:07:35.113Z,66.20
2023-03-28T06:10:16.266Z,65.49
2023-03-28T06:13:01.730Z,65.52
2023-03-28T06:15:34.525Z,65.68
2023-03-28T06:18:07.442Z,66.08
2023-03-28T06:20:45.084Z,65.87
2023-03-28T06:23:20.729Z,65.70
2023-03-28T06:25:53.814Z,65.67
2023-03-28T06:28:29.108Z,65.85
2023-03-28T06:31:22.060Z,65.92
2023-03-28T06:33:55.920Z,65.74
2023-03-28T06:36:29.473Z,66.17
2023-03-28T06:39:02.595Z,65.75
2023-03-28T06:41:36.699Z,65.78
2023-03-28T06:44:11.581Z,66.03
2023-03-28T06:47:10.285Z,65.66
2023-03-28T06:49:43.185Z,65.73
2023-03-28T06:52:33.911Z,65.47
2023-03-28T06:55:09.703Z,65.75
2023-03-28T06:57:42.606Z,65.72
2023-03-28T07:00:27.600Z,65.68
2023-03-28T07:03:19.230Z,65.45
2023-03-28T07:05:52.082Z,65.80
2023-03-28T07:08:26.405Z,65.69
2023-03-28T07:10:59.330Z,65.46
2023-03-28T07:13:33.124Z,65.78
2023-03-28T07:16:15.566Z,65.93
2023-03-28T07:18:48.784Z,66.00
2023-03-28T07:21:27.529Z,65.61
2023-03-28T07:24:03.304Z,65.58
2023-03-28T07:26:47.910Z,65.54
2023-03-28T07:29:20.909Z,65.47
2023-03-28T07:31:56.028Z,65.30
2023-03-28T07:34:29.160Z,65.75
2023-03-28T07:37:03.990Z,65.67
2023-03-28T07:39:56.547Z,65.38
2023-03-28T08:16:43.291Z,65.46
2023-03-28T08:19:16.474Z,65.14
2023-03-28T08:22:17.402Z,64.02
2023-03-28T08:24:56.890Z,64.18
2023-03-28T08:27:32.884Z,64.23
2023-03-28T08:30:13.034Z,64.57
2023-03-28T08:32:56.472Z,64.40
2023-03-28T08:35:29.484Z,64.49
2023-03-28T08:38:08.564Z,64.58
2023-03-28T08:40:49.434Z,63.76
2023-03-28T08:43:46.939Z,63.70
2023-03-28T08:46:27.241Z,64.29
2023-03-28T08:49:05.774Z,64.15
2023-03-28T08:51:41.224Z,64.27
2023-03-28T08:54:19.405Z,64.59
2023-03-28T08:56:57.040Z,63.05
2023-03-28T08:59:40.534Z,63.83
2023-03-28T09:02:16.972Z,60.23
2023-03-28T09:04:52.887Z,63.27
2023-03-28T09:07:37.044Z,61.88
2023-03-28T09:10:18.977Z,62.59
2023-03-28T09:13:30.038Z,62.82
2023-03-28T09:16:20.205Z,63.38
2023-03-28T09:19:21.717Z,61.40
2023-03-28T09:22:16.765Z,62.75
2023-03-28T09:25:02.378Z,62.22
2023-03-28T09:27:49.930Z,62.53
2023-03-28T09:30:28.200Z,62.51
2023-03-28T09:33:06.689Z,62.59
2023-03-28T09:35:40.722Z,62.80
2023-03-28T09:38:22.675Z,61.65
2023-03-28T09:41:00.552Z,61.09
2023-03-28T09:43:49.628Z,61.90
2023-03-28T09:47:02.581Z,62.10
2023-03-28T09:49:48.549Z,61.54
2023-03-28T09:52:25.220Z,62.36
2023-03-28T09:55:01.378Z,60.67
2023-03-28T09:58:05.428Z,60.23
2023-03-28T10:00:49.326Z,60.52
2023-03-28T10:03:54.164Z,60.26
2023-03-28T10:06:34.160Z,60.54
2023-03-28T10:09:26.299Z,59.06
2023-03-28T10:12:14.249Z,61.31
2023-03-28T10:14:48.770Z,59.49
2023-03-28T10:17:42.581Z,59.12
2023-03-28T10:20:21.230Z,59.73
2023-03-28T10:22:58.353Z,59.17
2023-03-28T10:25:39.048Z,59.10
2023-03-28T10:28:22.247Z,59.75
2023-03-28T10:30:57.797Z,56.15
2023-03-28T10:33:35.063Z,58.87
2023-03-28T10:36:43.656Z,56.79
2023-03-28T10:39:24.873Z,56.88
2023-03-28T10:42:25.590Z,59.74
2023-03-28T10:45:36.238Z,56.74
2023-03-28T10:48:14.692Z,57.29
2023-03-28T10:50:50.585Z,58.29
2023-03-28T10:53:38.101Z,57.61
2023-03-28T10:56:23.924Z,56.90
2023-03-28T10:59:14.363Z,57.26
2023-03-28T11:02:02.942Z,60.76
2023-03-28T11:04:54.638Z,56.94
2023-03-28T11:07:37.849Z,54.98
2023-03-28T11:10:44.272Z,56.40
2023-03-28T11:13:41.872Z,56.72
2023-03-28T11:16:23.131Z,55.23
2023-03-28T11:19:31.829Z,55.86
2023-03-28T11:22:16.918Z,54.82
2023-03-28T11:25:06.521Z,53.82
2023-03-28T11:28:11.951Z,53.85
2023-03-28T11:30:54.371Z,54.73
2023-03-28T11:33:50.888Z,54.39
2023-03-28T11:36:34.158Z,57.15
2023-03-28T11:39:15.046Z,56.05
2023-03-28T11:41:49.995Z,55.80
2023-03-28T11:44:36.326Z,56.72
2023-03-28T11:47:13.483Z,53.83
2023-03-28T11:49:53.890Z,57.66
2023-03-28T11:52:53.473Z,54.93
2023-03-28T11:55:30.820Z,54.98
2023-03-28T11:58:12.839Z,57.04
2023-03-28T12:00:53.088Z,55.39
2023-03-28T12:03:36.716Z,56.83
2023-03-28T12:06:17.263Z,54.15
2023-03-28T12:08:58.202Z,54.92
2023-03-28T12:11:42.126Z,56.63
2023-03-28T12:14:30.836Z,57.48
2023-03-28T12:17:17.957Z,56.85
2023-03-28T12:19:51.402Z,56.51
2023-03-28T12:22:26.739Z,55.93
2023-03-28T12:25:08.342Z,56.34
2023-03-28T12:27:57.033Z,55.07
2023-03-28T12:30:40.438Z,54.98
2023-03-28T12:33:23.049Z,55.84
2023-03-28T12:36:19.141Z,55.26
2023-03-28T12:38:58.594Z,54.94
2023-03-28T12:41:41.018Z,56.14
2023-03-28T12:44:21.023Z,55.72
2023-03-28T12:47:00.912Z,53.20
2023-03-28T12:49:42.675Z,57.26
2023-03-28T12:52:23.397Z,53.65
2023-03-28T12:55:01.345Z,55.84
2023-03-28T12:57:48.430Z,54.80
2023-03-28T13:00:48.036Z,55.43
2023-03-28T13:03:53.706Z,55.54
2023-03-28T13:06:44.774Z,55.08
2023-03-28T13:09:39.150Z,55.63
2023-03-28T13:12:29.011Z,55.22
2023-03-28T13:15:25.362Z,56.16
2023-03-28T13:18:31.616Z,55.65
2023-03-28T13:21:07.197Z,55.45
2023-03-28T13:23:48.980Z,57.08
2023-03-28T13:26:22.757Z,56.78
2023-03-28T13:29:02.629Z,56.40
2023-03-28T13:31:44.735Z,55.52
2023-03-28T13:34:23.420Z,55.23
2023-03-28T13:36:56.732Z,57.13
2023-03-28T13:39:29.967Z,56.05
2023-03-28T13:42:04.638Z,55.77
2023-03-28T13:44:42.970Z,56.51
2023-03-28T13:47:26.766Z,56.89
2023-03-28T13:50:03.668Z,57.26
2023-03-28T13:52:36.807Z,54.37
2023-03-28T13:55:20.627Z,56.07
2023-03-28T13:57:54.236Z,56.05
2023-03-28T14:00:28.816Z,56.19
2023-03-28T14:03:04.929Z,54.55
2023-03-28T14:05:44.596Z,54.30
2023-03-28T14:08:22.794Z,55.60
2023-03-28T14:10:57.044Z,55.94
2023-03-28T14:13:31.405Z,55.83
2023-03-28T14:16:07.663Z,56.36
2023-03-28T14:18:44.653Z,56.61
2023-03-28T14:21:17.588Z,56.33
2023-03-28T14:23:57.124Z,57.19
2023-03-28T14:26:35.207Z,56.54
2023-03-28T14:29:13.369Z,57.83
2023-03-28T14:31:48.676Z,57.13
2023-03-28T14:34:28.694Z,58.07
2023-03-28T14:37:03.787Z,59.47
2023-03-28T14:39:39.911Z,58.09
2023-03-28T14:42:16.416Z,56.65
2023-03-28T14:44:53.546Z,57.77
2023-03-28T14:47:29.099Z,59.30
2023-03-28T14:50:05.369Z,58.22
2023-03-28T14:52:41.033Z,59.78
2023-03-28T14:55:18.265Z,59.33
2023-03-28T14:57:53.648Z,59.07
2023-03-28T15:00:36.052Z,60.09
2023-03-28T15:03:13.538Z,59.19
2023-03-28T15:05:51.902Z,60.15
2023-03-28T15:08:31.006Z,60.85
2023-03-28T15:11:07.530Z,58.78
2023-03-28T15:13:42.474Z,59.20
2023-03-28T15:16:20.548Z,59.60
2023-03-28T15:18:58.194Z,59.39
2023-03-28T15:21:34.514Z,60.99
2023-03-28T15:24:12.617Z,60.28
2023-03-28T15:26:50.533Z,59.68
2023-03-28T15:29:25.264Z,59.64
2023-03-28T15:32:03.720Z,60.82
2023-03-28T15:34:46.008Z,61.01
2023-03-28T15:37:23.316Z,60.95
2023-03-28T15:40:12.962Z,61.19
2023-03-28T15:42:50.156Z,61.45
2023-03-28T15:45:40.812Z,61.55
2023-03-28T15:48:17.766Z,61.80
2023-03-28T15:50:52.793Z,62.48
2023-03-28T15:53:30.047Z,62.89
2023-03-28T15:56:09.870Z,62.44
2023-03-28T15:58:45.232Z,61.72
2023-03-28T16:01:22.298Z,61.68
2023-03-28T16:04:20.987Z,62.01
2023-03-28T16:06:56.976Z,60.96
2023-03-28T16:09:31.483Z,62.35
2023-03-28T16:12:05.407Z,62.27
2023-03-28T16:14:48.833Z,62.41
2023-03-28T16:17:50.880Z,62.38
2023-03-28T16:20:35.101Z,61.78
2023-03-28T16:23:11.063Z,61.08
2023-03-28T16:25:45.379Z,62.41
2023-03-28T16:28:19.192Z,61.73
2023-03-28T16:30:52.975Z,63.01
2023-03-28T16:33:25.840Z,62.49
2023-03-28T16:35:58.752Z,62.16
2023-03-28T16:38:31.696Z,62.96
2023-03-28T16:41:11.714Z,62.55
2023-03-28T16:43:44.419Z,62.42
2023-03-28T16:46:17.517Z,62.39
2023-03-28T16:48:50.276Z,62.20
2023-03-28T16:51:23.172Z,64.50
2023-03-28T16:53:55.919Z,62.56
2023-03-28T16:56:30.545Z,61.92
2023-03-28T16:59:04.452Z,61.98
2023-03-28T17:01:38.749Z,61.83
2023-03-28T17:04:11.712Z,63.14
2023-03-28T17:06:45.839Z,62.16
2023-03-28T17:09:18.934Z,61.75
2023-03-28T17:11:53.049Z,63.43
2023-03-28T17:14:25.930Z,63.02
2023-03-28T17:16:58.717Z,62.10
2023-03-28T17:19:34.658Z,62.01
2023-03-28T17:22:07.739Z,61.66
2023-03-28T17:24:41.319Z,62.97
2023-03-28T17:27:18.834Z,64.01
2023-03-28T17:29:53.141Z,62.63
2023-03-28T17:32:29.409Z,61.61
2023-03-28T17:35:05.510Z,61.83
2023-03-28T17:37:38.661Z,62.73
2023-03-28T17:40:12.234Z,62.25
2023-03-28T17:42:47.289Z,63.08
2023-03-28T17:45:21.428Z,62.56
2023-03-28T17:47:59.351Z,63.93
2023-03-28T17:50:33.538Z,63.86
2023-03-28T17:53:07.886Z,63.44
2023-03-28T17:55:41.114Z,63.30
2023-03-28T17:58:16.010Z,63.11
2023-03-28T18:00:48.854Z,63.05
2023-03-28T18:03:25.146Z,62.94
2023-03-28T18:06:13.128Z,63.13
2023-03-28T18:08:46.814Z,63.47
2023-03-28T18:11:20.127Z,64.24
2023-03-28T18:13:58.877Z,63.44
2023-03-28T18:16:32.027Z,63.84
2023-03-28T18:19:06.761Z,64.63
2023-03-28T18:21:39.520Z,64.52
2023-03-28T18:24:12.305Z,63.50
2023-03-28T18:26:45.057Z,63.92
2023-03-28T18:29:19.461Z,63.87
2023-03-28T18:31:52.182Z,64.37
2023-03-28T18:34:25.174Z,63.78
2023-03-28T18:37:00.117Z,63.74
2023-03-28T18:39:33.030Z,63.93
2023-03-28T18:42:07.477Z,64.64
2023-03-28T18:44:41.883Z,64.90
2023-03-28T18:47:14.605Z,64.64
2023-03-28T18:49:47.553Z,64.55
2023-03-28T18:52:20.316Z,64.77
2023-03-28T18:54:53.121Z,64.68
2023-03-28T18:57:26.735Z,64.49
2023-03-28T19:00:03.446Z,64.91
2023-03-28T19:02:36.869Z,64.29
2023-03-28T19:05:11.112Z,66.70
2023-03-28T19:07:44.143Z,64.56
2023-03-28T19:10:17.120Z,64.77
2023-03-28T19:12:50.248Z,65.08
2023-03-28T19:15:26.395Z,65.10
2023-03-28T19:18:02.282Z,64.38
2023-03-28T19:20:36.379Z,64.10
2023-03-28T19:23:09.506Z,64.42
2023-03-28T19:25:49.132Z,67.17
2023-03-28T19:28:22.787Z,64.56
2023-03-28T19:31:07.320Z,65.22
2023-03-28T19:33:41.657Z,64.99
2023-03-28T19:36:23.927Z,64.52
2023-03-28T19:38:57.142Z,64.50
2023-03-28T19:41:29.893Z,64.49
2023-03-28T19:44:02.620Z,64.32
2023-03-28T19:46:40.627Z,64.48
2023-03-28T19:49:15.993Z,64.36
2023-03-28T19:51:53.727Z,64.36
2023-03-28T19:54:26.686Z,64.75
2023-03-28T19:57:00.171Z,64.75
2023-03-28T19:59:33.603Z,65.48
2023-03-28T20:02:10.792Z,65.22
2023-03-28T20:04:43.550Z,64.34
2023-03-28T20:07:21.933Z,64.85
2023-03-28T20:09:57.359Z,64.51
2023-03-28T20:12:30.788Z,65.13
2023-03-28T20:15:06.735Z,65.19
2023-03-28T20:17:41.650Z,64.81
2023-03-28T20:20:15.487Z,64.96
2023-03-28T20:22:48.230Z,64.44
2023-03-28T20:25:21.437Z,65.13
2023-03-28T20:27:54.965Z,64.28
2023-03-28T20:30:28.012Z,64.55
2023-03-28T20:33:02.892Z,64.98
2023-03-28T20:35:35.946Z,65.29
2023-03-28T20:38:09.657Z,64.72
2023-03-28T20:40:42.272Z,64.96
2023-03-28T20:43:19.830Z,64.53
2023-03-28T20:45:54.395Z,64.95
2023-03-28T20:48:36.430Z,64.54
2023-03-28T20:51:14.128Z,64.72
2023-03-28T20:53:49.670Z,65.05
2023-03-28T20:56:23.430Z,64.64
2023-03-28T20:58:58.263Z,64.93
2023-03-28T21:01:32.960Z,64.77
2023-03-28T21:04:07.317Z,65.06
2023-03-28T21:06:40.165Z,65.08
2023-03-28T21:09:16.096Z,65.05
2023-03-28T21:11:49.597Z,65.09
2023-03-28T21:14:22.506Z,65.33
2023-03-28T21:16:57.811Z,65.81
2023-03-28T21:19:31.937Z,65.32
2023-03-28T21:22:04.587Z,65.57
2023-03-28T21:24:37.369Z,64.88
2023-03-28T21:27:10.068Z,64.92
2023-03-28T21:29:43.034Z,65.39
2023-03-28T21:32:16.392Z,65.41
2023-03-28T21:34:51.561Z,65.02
2023-03-28T21:37:24.492Z,65.25
2023-03-28T21:39:57.738Z,65.26
2023-03-28T21:42:30.772Z,65.74
2023-03-28T21:45:03.610Z,65.59
2023-03-28T21:47:38.092Z,65.05
2023-03-28T21:50:15.182Z,64.87
2023-03-28T21:52:48.001Z,65.34
2023-03-28T21:55:20.845Z,65.25
2023-03-28T21:57:53.668Z,65.95
2023-03-28T22:00:26.341Z,65.59
2023-03-28T22:02:59.695Z,65.39
2023-03-28T22:05:33.834Z,65.33
2023-03-28T22:08:07.007Z,65.31
2023-03-28T22:10:45.781Z,65.72
2023-03-28T22:13:18.982Z,65.22
2023-03-28T22:15:53.174Z,65.36
2023-03-28T22:18:27.052Z,65.47
2023-03-28T22:21:02.780Z,65.32
2023-03-28T22:23:36.321Z,65.31
2023-03-28T22:26:10.261Z,65.32
2023-03-28T22:28:42.913Z,65.51
2023-03-28T22:31:17.090Z,65.59
2023-03-28T22:33:49.836Z,65.45
2023-03-28T22:36:24.410Z,65.75
2023-03-28T22:38:57.350Z,65.55
2023-03-28T22:41:32.110Z,65.44
2023-03-28T22:44:04.920Z,65.60
2023-03-28T22:46:41.044Z,65.18
2023-03-28T22:49:21.927Z,66.06
2023-03-28T22:52:01.754Z,65.26
2023-03-28T22:54:36.983Z,65.05
2023-03-28T22:57:10.237Z,65.36
2023-03-28T22:59:42.917Z,65.28
2023-03-28T23:02:15.588Z,66.02
2023-03-28T23:04:48.294Z,65.56
2023-03-28T23:07:22.433Z,65.59
2023-03-28T23:09:55.047Z,65.42
2023-03-28T23:12:27.833Z,65.21
2023-03-28T23:15:00.468Z,65.38
2023-03-28T23:17:33.264Z,64.93
2023-03-28T23:20:12.727Z,65.47
2023-03-28T23:22:49.160Z,64.82
2023-03-28T23:25:22.287Z,65.20
2023-03-28T23:27:55.135Z,64.49
2023-03-28T23:30:28.135Z,64.96
2023-03-28T23:33:01.875Z,64.85
2023-03-28T23:35:35.059Z,64.84
2023-03-28T23:38:09.209Z,65.11
2023-03-28T23:40:41.944Z,64.19
2023-03-28T23:43:14.833Z,64.36
2023-03-28T23:45:47.520Z,64.74
2023-03-28T23:48:20.547Z,64.44
2023-03-28T23:50:53.063Z,64.39
2023-03-28T23:53:27.959Z,64.37
2023-03-28T23:56:00.606Z,64.69
2023-03-28T23:58:33.420Z,64.71
